createdAt,value
2019-03-28T00:01:26.502Z,47.30
2019-03-28T00:03:53.981Z,47.30
2019-03-28T00:06:21.449Z,47.20
2019-03-28T00:08:48.915Z,47.10
2019-03-28T00:11:16.377Z,47.00
2019-03-28T00:13:43.834Z,47.10
2019-03-28T00:16:11.306Z,47.00
2019-03-28T00:18:38.756Z,47.10
2019-03-28T00:21:06.216Z,47.20
2019-03-28T00:23:41.004Z,47.40
2019-03-28T00:26:08.465Z,47.60
2019-03-28T00:28:35.930Z,47.60
2019-03-28T00:31:03.647Z,47.80
2019-03-28T00:33:31.101Z,47.90
2019-03-28T00:35:58.566Z,47.80
2019-03-28T00:38:26.029Z,47.80
2019-03-28T00:40:53.492Z,47.90
2019-03-28T00:43:20.948Z,48.20
2019-03-28T00:45:48.423Z,47.80
2019-03-28T00:48:15.889Z,47.80
2019-03-28T00:50:43.350Z,47.70
2019-03-28T00:53:11.122Z,48.20
2019-03-28T00:55:38.589Z,47.50
2019-03-28T00:58:06.051Z,47.40
2019-03-28T01:00:33.512Z,47.40
2019-03-28T01:03:00.982Z,47.40
2019-03-28T01:05:28.440Z,47.40
2019-03-28T01:07:55.905Z,47.30
2019-03-28T01:10:23.365Z,47.40
2019-03-28T01:12:50.833Z,47.50
2019-03-28T01:15:18.316Z,47.10
2019-03-28T01:17:45.781Z,47.70
2019-03-28T01:20:13.253Z,47.50
2019-03-28T01:22:40.712Z,47.40
2019-03-28T01:25:08.191Z,47.20
2019-03-28T01:27:35.651Z,47.00
2019-03-28T01:30:03.899Z,46.90
2019-03-28T01:32:31.385Z,46.90
2019-03-28T01:34:58.857Z,47.00
2019-03-28T01:37:26.329Z,47.00
2019-03-28T01:39:53.789Z,47.10
2019-03-28T01:42:21.261Z,47.00
2019-03-28T01:44:48.720Z,47.10
2019-03-28T01:47:16.188Z,46.90
2019-03-28T01:49:43.644Z,46.90
2019-03-28T01:52:11.100Z,47.10
2019-03-28T01:54:38.566Z,46.90
2019-03-28T01:57:11.244Z,47.00
2019-03-28T01:59:35.223Z,47.00
2019-03-28T02:02:02.687Z,47.00
2019-03-28T02:04:30.153Z,47.00
2019-03-28T02:06:57.618Z,47.00
2019-03-28T02:09:25.081Z,47.00
2019-03-28T02:11:52.554Z,47.00
2019-03-28T02:14:20.018Z,47.00
2019-03-28T02:16:47.495Z,47.00
2019-03-28T02:19:14.951Z,47.00
2019-03-28T02:21:42.418Z,46.90
2019-03-28T02:24:09.885Z,46.80
2019-03-28T02:26:37.434Z,46.90
2019-03-28T02:29:04.899Z,46.90
2019-03-28T02:31:32.365Z,46.90
2019-03-28T02:33:59.835Z,46.90
2019-03-28T02:36:27.302Z,46.90
2019-03-28T02:38:54.764Z,47.00
2019-03-28T02:41:22.228Z,46.90
2019-03-28T02:43:49.690Z,46.90
2019-03-28T02:46:17.169Z,46.60
2019-03-28T02:48:44.627Z,47.00
2019-03-28T02:51:12.097Z,46.90
2019-03-28T02:53:39.678Z,46.90
2019-03-28T02:56:07.408Z,46.90
2019-03-28T02:58:34.883Z,46.80
2019-03-28T03:01:02.342Z,46.80
2019-03-28T03:03:29.813Z,46.70
2019-03-28T03:05:57.273Z,46.80
2019-03-28T03:08:24.750Z,46.80
2019-03-28T03:10:52.197Z,46.80
2019-03-28T03:13:20.042Z,46.80
2019-03-28T03:15:47.617Z,46.80
2019-03-28T03:18:15.085Z,46.90
2019-03-28T03:20:43.584Z,47.00
2019-03-28T03:23:11.409Z,46.90
2019-03-28T03:25:38.873Z,46.90
2019-03-28T03:28:06.408Z,47.00
2019-03-28T03:30:33.917Z,47.20
2019-03-28T03:33:01.426Z,47.30
2019-03-28T03:35:28.948Z,47.10
2019-03-28T03:37:56.407Z,47.00
2019-03-28T03:40:23.860Z,47.00
2019-03-28T03:42:51.332Z,47.00
2019-03-28T03:45:18.795Z,47.00
2019-03-28T03:47:46.264Z,46.90
2019-03-28T03:50:15.359Z,47.00
2019-03-28T03:52:42.845Z,47.00
2019-03-28T03:55:10.303Z,46.90
2019-03-28T03:57:37.786Z,46.90
2019-03-28T04:00:08.313Z,46.90
2019-03-28T04:02:36.588Z,47.00
2019-03-28T04:05:05.000Z,47.00
2019-03-28T04:07:32.744Z,46.90
2019-03-28T04:10:00.629Z,46.90
2019-03-28T04:12:28.253Z,47.00
2019-03-28T04:14:55.726Z,47.00
2019-03-28T04:17:23.194Z,47.30
2019-03-28T04:19:50.724Z,47.00
2019-03-28T04:22:18.188Z,46.90
2019-03-28T04:24:45.654Z,47.00
2019-03-28T04:27:13.122Z,47.00
2019-03-28T04:29:40.576Z,47.00
2019-03-28T04:32:08.033Z,47.00
2019-03-28T04:34:35.495Z,46.90
2019-03-28T04:37:02.970Z,46.90
2019-03-28T04:39:30.526Z,46.90
2019-03-28T04:41:57.973Z,46.80
2019-03-28T04:44:25.479Z,46.80
2019-03-28T04:46:52.930Z,46.90
2019-03-28T04:49:20.471Z,47.00
2019-03-28T04:51:47.921Z,46.90
2019-03-28T04:54:15.398Z,47.00
2019-03-28T04:56:42.852Z,46.90
2019-03-28T04:59:10.334Z,46.90
2019-03-28T05:01:37.788Z,46.90
2019-03-28T05:04:05.280Z,47.00
2019-03-28T05:06:32.732Z,46.90
2019-03-28T05:09:00.206Z,46.90
2019-03-28T05:11:27.652Z,46.90
2019-03-28T05:13:55.133Z,46.90
2019-03-28T05:16:23.345Z,46.90
2019-03-28T05:18:50.933Z,46.80
2019-03-28T05:21:18.397Z,46.90
2019-03-28T05:23:45.860Z,46.80
2019-03-28T05:26:13.325Z,46.90
2019-03-28T05:28:40.972Z,47.00
2019-03-28T05:31:08.549Z,47.00
2019-03-28T05:33:35.972Z,46.90
2019-03-28T05:36:04.526Z,47.00
2019-03-28T05:38:32.089Z,46.90
2019-03-28T05:40:59.550Z,46.90
2019-03-28T05:43:27.015Z,46.90
2019-03-28T05:45:54.478Z,47.00
2019-03-28T05:48:21.970Z,47.00
2019-03-28T05:50:49.429Z,47.00
2019-03-28T05:53:16.884Z,46.90
2019-03-28T05:55:44.344Z,46.90
2019-03-28T05:58:11.807Z,46.90
2019-03-28T06:00:40.276Z,46.90
2019-03-28T06:03:07.905Z,46.80
2019-03-28T06:05:35.392Z,46.90
2019-03-28T06:08:02.855Z,47.00
2019-03-28T06:10:30.313Z,46.90
2019-03-28T06:12:58.341Z,46.90
2019-03-28T06:15:25.809Z,46.90
2019-03-28T06:17:53.278Z,47.00
2019-03-28T06:20:20.749Z,46.90
2019-03-28T06:22:48.201Z,47.00
2019-03-28T06:25:15.665Z,47.00
2019-03-28T06:27:43.126Z,47.00
2019-03-28T06:30:10.594Z,47.00
2019-03-28T06:32:43.123Z,46.90
2019-03-28T06:35:07.237Z,46.90
2019-03-28T06:37:34.705Z,46.90
2019-03-28T06:40:02.178Z,46.90
2019-03-28T06:42:29.685Z,47.00
2019-03-28T06:44:57.182Z,46.90
2019-03-28T06:47:24.645Z,46.90
2019-03-28T06:49:52.122Z,46.90
2019-03-28T06:52:19.585Z,46.80
2019-03-28T06:54:47.053Z,47.50
2019-03-28T06:57:14.521Z,47.00
2019-03-28T06:59:41.989Z,46.90
2019-03-28T07:02:09.462Z,46.90
2019-03-28T07:04:36.921Z,46.90
2019-03-28T07:07:04.380Z,46.90
2019-03-28T07:09:31.837Z,46.80
2019-03-28T07:11:59.313Z,46.70
2019-03-28T07:14:26.771Z,46.70
2019-03-28T07:16:54.225Z,46.80
2019-03-28T07:19:21.705Z,46.90
2019-03-28T07:21:49.173Z,46.90
2019-03-28T07:24:16.633Z,46.90
2019-03-28T07:26:44.092Z,47.00
2019-03-28T07:29:11.563Z,46.80
2019-03-28T07:31:39.016Z,46.70
2019-03-28T07:34:06.485Z,46.70
2019-03-28T07:36:33.940Z,46.70
2019-03-28T07:39:01.406Z,46.90
2019-03-28T07:41:28.874Z,47.50
2019-03-28T07:43:56.342Z,46.90
2019-03-28T07:46:23.807Z,46.80
2019-03-28T07:48:51.260Z,46.80
2019-03-28T07:51:18.720Z,46.70
2019-03-28T07:53:46.181Z,46.70
2019-03-28T07:56:13.640Z,46.70
2019-03-28T07:58:43.947Z,46.70
2019-03-28T08:01:10.284Z,47.40
2019-03-28T08:03:39.907Z,46.60
2019-03-28T08:06:06.953Z,46.50
2019-03-28T08:08:39.032Z,46.40
2019-03-28T08:11:03.596Z,46.40
2019-03-28T08:13:31.050Z,46.40
2019-03-28T08:15:58.512Z,46.40
2019-03-28T08:18:25.968Z,46.50
2019-03-28T08:20:53.432Z,46.70
2019-03-28T08:23:20.904Z,46.80
2019-03-28T08:25:48.374Z,46.90
2019-03-28T08:28:15.838Z,46.80
2019-03-28T08:30:45.350Z,46.70
2019-03-28T08:33:12.756Z,46.70
2019-03-28T08:35:40.556Z,46.70
2019-03-28T08:38:09.934Z,46.80
2019-03-28T08:40:41.420Z,46.70
2019-03-28T08:43:08.874Z,47.00
2019-03-28T08:45:36.372Z,47.00
2019-03-28T08:48:03.825Z,47.00
2019-03-28T08:50:31.289Z,46.90
2019-03-28T08:52:58.933Z,46.90
2019-03-28T08:55:26.396Z,46.80
2019-03-28T08:57:53.866Z,46.70
2019-03-28T09:00:32.291Z,46.80
2019-03-28T09:02:50.526Z,46.90
2019-03-28T09:05:18.041Z,47.50
2019-03-28T09:07:45.498Z,46.90
2019-03-28T09:10:13.060Z,46.90
2019-03-28T09:12:52.838Z,46.90
2019-03-28T09:15:20.362Z,47.00
2019-03-28T09:17:47.822Z,46.90
2019-03-28T09:20:15.339Z,46.90
2019-03-28T09:22:42.789Z,46.90
2019-03-28T09:25:10.254Z,46.90
2019-03-28T09:27:37.794Z,47.00
2019-03-28T09:30:08.478Z,47.60
2019-03-28T09:32:35.952Z,47.00
2019-03-28T09:35:04.189Z,47.00
2019-03-28T09:37:31.658Z,47.00
2019-03-28T09:39:59.151Z,47.00
2019-03-28T09:42:26.616Z,47.00
2019-03-28T09:44:54.073Z,47.00
2019-03-28T09:47:21.551Z,47.10
2019-03-28T09:49:49.017Z,47.00
2019-03-28T09:52:16.490Z,47.20
2019-03-28T09:54:43.947Z,47.10
2019-03-28T09:57:11.418Z,47.00
2019-03-28T09:59:38.905Z,47.40
2019-03-28T10:02:06.378Z,48.10
2019-03-28T10:04:33.829Z,47.40
2019-03-28T10:07:01.301Z,47.50
2019-03-28T10:09:28.766Z,47.40
2019-03-28T10:11:56.234Z,47.50
2019-03-28T10:14:24.028Z,47.50
2019-03-28T10:16:51.498Z,47.50
2019-03-28T10:19:18.981Z,47.40
2019-03-28T10:21:46.460Z,47.40
2019-03-28T10:24:13.922Z,47.40
2019-03-28T10:26:41.474Z,47.60
2019-03-28T10:29:08.966Z,47.50
2019-03-28T10:31:36.468Z,47.10
2019-03-28T10:34:03.972Z,47.50
2019-03-28T10:36:31.503Z,47.50
2019-03-28T10:38:59.013Z,47.50
2019-03-28T10:41:26.518Z,47.60
2019-03-28T10:43:54.326Z,47.60
2019-03-28T10:46:21.820Z,47.60
2019-03-28T10:48:49.465Z,47.60
2019-03-28T10:51:17.110Z,47.60
2019-03-28T10:53:44.609Z,47.60
2019-03-28T10:56:21.510Z,47.60
2019-03-28T10:58:41.332Z,47.60
2019-03-28T11:01:08.852Z,47.70
2019-03-28T11:03:36.418Z,47.60
2019-03-28T11:06:03.921Z,47.60
2019-03-28T11:08:31.420Z,47.70
2019-03-28T11:10:59.117Z,47.70
2019-03-28T11:13:26.672Z,47.80
2019-03-28T11:15:54.186Z,47.90
2019-03-28T11:18:21.685Z,47.90
2019-03-28T11:20:49.247Z,48.50
2019-03-28T11:23:16.745Z,47.90
2019-03-28T11:25:44.241Z,47.90
2019-03-28T11:28:11.766Z,47.90
2019-03-28T11:30:39.346Z,47.90
2019-03-28T11:33:06.922Z,47.90
2019-03-28T11:35:34.426Z,47.90
2019-03-28T11:38:01.934Z,47.90
2019-03-28T11:40:29.453Z,47.90
2019-03-28T11:42:57.397Z,47.90
2019-03-28T11:45:27.067Z,47.90
2019-03-28T11:47:54.185Z,47.90
2019-03-28T11:50:21.691Z,47.90
2019-03-28T11:52:49.266Z,48.00
2019-03-28T11:55:16.763Z,48.00
2019-03-28T11:57:44.268Z,47.90
2019-03-28T12:00:13.515Z,48.00
2019-03-28T12:02:41.018Z,48.00
2019-03-28T12:05:08.540Z,48.00
2019-03-28T12:07:36.109Z,48.00
2019-03-28T12:10:05.182Z,48.00
2019-03-28T12:12:32.689Z,48.10
2019-03-28T12:15:00.390Z,48.00
2019-03-28T12:17:27.969Z,48.00
2019-03-28T12:19:55.470Z,48.00
2019-03-28T12:22:22.971Z,48.00
2019-03-28T12:24:50.468Z,48.00
2019-03-28T12:27:17.968Z,48.00
2019-03-28T12:29:45.470Z,48.00
2019-03-28T12:32:14.176Z,48.00
2019-03-28T12:34:42.269Z,48.10
2019-03-28T12:37:10.781Z,48.00
2019-03-28T12:39:38.549Z,48.00
2019-03-28T12:42:06.056Z,48.00
2019-03-28T12:44:33.921Z,48.00
2019-03-28T12:47:01.414Z,48.00
2019-03-28T12:49:28.925Z,48.00
2019-03-28T12:51:56.495Z,48.00
2019-03-28T12:54:23.992Z,48.40
2019-03-28T12:56:51.492Z,48.30
2019-03-28T12:59:19.021Z,48.30
2019-03-28T13:01:46.530Z,48.30
2019-03-28T13:04:14.047Z,48.40
2019-03-28T13:06:41.869Z,48.30
2019-03-28T13:09:09.922Z,48.30
2019-03-28T13:11:37.737Z,48.20
2019-03-28T13:14:05.237Z,48.20
2019-03-28T13:16:32.742Z,48.10
2019-03-28T13:19:00.247Z,48.20
2019-03-28T13:21:27.736Z,48.20
2019-03-28T13:23:56.052Z,48.20
2019-03-28T13:26:23.553Z,48.20
2019-03-28T13:28:51.073Z,48.20
2019-03-28T13:31:18.582Z,48.20
2019-03-28T13:33:46.156Z,48.20
2019-03-28T13:36:13.659Z,48.00
2019-03-28T13:38:41.169Z,47.90
2019-03-28T13:41:08.669Z,47.90
2019-03-28T13:43:36.176Z,47.70
2019-03-28T13:46:03.689Z,47.80
2019-03-28T13:48:31.267Z,47.60
2019-03-28T13:50:58.860Z,47.60
2019-03-28T13:53:38.743Z,47.60
2019-03-28T13:55:55.665Z,47.60
2019-03-28T13:58:23.167Z,47.50
2019-03-28T14:00:50.665Z,47.50
2019-03-28T14:03:18.156Z,47.60
2019-03-28T14:05:45.669Z,47.70
2019-03-28T14:08:13.182Z,47.70
2019-03-28T14:10:40.744Z,47.70
2019-03-28T14:13:08.239Z,47.70
2019-03-28T14:15:35.862Z,47.70
2019-03-28T14:18:03.354Z,47.60
2019-03-28T14:20:30.856Z,47.50
2019-03-28T14:22:58.530Z,47.40
2019-03-28T14:25:26.030Z,47.40
2019-03-28T14:27:53.534Z,47.20
2019-03-28T14:30:21.109Z,47.00
2019-03-28T14:32:53.540Z,47.10
2019-03-28T14:35:17.851Z,47.00
2019-03-28T14:37:45.343Z,47.00
2019-03-28T14:40:12.855Z,47.00
2019-03-28T14:42:40.956Z,47.10
2019-03-28T14:45:08.744Z,47.10
2019-03-28T14:47:36.252Z,47.20
2019-03-28T14:50:03.954Z,47.30
2019-03-28T14:52:31.536Z,47.30
2019-03-28T14:55:01.452Z,47.40
2019-03-28T14:57:28.261Z,47.40
2019-03-28T14:59:55.785Z,47.40
2019-03-28T15:02:23.348Z,47.40
2019-03-28T15:04:50.858Z,47.40
2019-03-28T15:07:18.369Z,47.30
2019-03-28T15:09:45.872Z,47.40
2019-03-28T15:12:13.443Z,47.50
2019-03-28T15:14:41.056Z,47.50
2019-03-28T15:17:08.559Z,47.50
2019-03-28T15:19:36.065Z,47.40
2019-03-28T15:22:03.560Z,47.60
2019-03-28T15:24:31.647Z,47.50
2019-03-28T15:26:59.677Z,47.80
2019-03-28T15:29:27.244Z,47.70
2019-03-28T15:31:54.751Z,47.70
2019-03-28T15:34:22.261Z,47.70
2019-03-28T15:36:49.755Z,47.80
2019-03-28T15:39:17.268Z,47.80
2019-03-28T15:41:44.768Z,47.90
2019-03-28T15:44:12.261Z,47.80
2019-03-28T15:46:39.766Z,47.70
2019-03-28T15:49:07.279Z,47.90
2019-03-28T15:51:34.790Z,48.00
2019-03-28T15:54:02.290Z,47.90
2019-03-28T15:56:29.788Z,47.80
2019-03-28T15:58:57.306Z,47.70
2019-03-28T16:01:24.868Z,47.60
2019-03-28T16:03:53.519Z,47.60
2019-03-28T16:06:22.405Z,47.50
2019-03-28T16:08:50.148Z,47.50
2019-03-28T16:11:17.653Z,47.50
2019-03-28T16:13:45.189Z,47.40
2019-03-28T16:16:32.201Z,47.40
2019-03-28T16:19:01.662Z,47.20
2019-03-28T16:21:28.958Z,47.40
2019-03-28T16:23:56.466Z,47.40
2019-03-28T16:26:23.969Z,47.50
2019-03-28T16:28:51.648Z,47.50
2019-03-28T16:31:19.157Z,47.40
2019-03-28T16:33:46.674Z,47.30
2019-03-28T16:36:14.191Z,47.10
2019-03-28T16:38:41.694Z,47.10
2019-03-28T16:41:09.201Z,47.10
2019-03-28T16:43:36.713Z,47.10
2019-03-28T16:46:07.560Z,47.10
2019-03-28T16:48:33.520Z,47.00
2019-03-28T16:51:01.025Z,47.20
2019-03-28T16:53:28.546Z,47.00
2019-03-28T16:55:56.051Z,47.10
2019-03-28T16:58:23.549Z,47.10
2019-03-28T17:00:51.092Z,47.20
2019-03-28T17:03:18.585Z,47.10
2019-03-28T17:05:47.237Z,47.10
2019-03-28T17:08:14.997Z,47.10
2019-03-28T17:10:43.415Z,47.00
2019-03-28T17:13:11.107Z,47.10
2019-03-28T17:15:38.690Z,47.10
2019-03-28T17:18:06.220Z,47.00
2019-03-28T17:20:33.731Z,47.10
2019-03-28T17:23:01.825Z,47.10
2019-03-28T17:25:29.524Z,47.10
2019-03-28T17:27:57.109Z,47.00
2019-03-28T17:30:24.616Z,47.10
2019-03-28T17:32:52.192Z,47.10
2019-03-28T17:35:19.698Z,47.10
2019-03-28T17:37:47.203Z,47.10
2019-03-28T17:40:14.715Z,47.10
2019-03-28T17:42:42.226Z,47.10
2019-03-28T17:45:09.746Z,47.10
2019-03-28T17:47:37.433Z,47.70
2019-03-28T17:50:06.178Z,47.10
2019-03-28T17:52:33.818Z,47.00
2019-03-28T17:55:01.336Z,47.10
2019-03-28T17:57:29.293Z,47.10
2019-03-28T17:59:56.798Z,47.10
2019-03-28T18:02:24.484Z,47.10
2019-03-28T18:04:51.998Z,47.10
2019-03-28T18:07:19.528Z,47.20
2019-03-28T18:09:47.094Z,47.10
2019-03-28T18:12:14.737Z,47.10
2019-03-28T18:14:42.263Z,47.10
2019-03-28T18:17:09.861Z,47.30
2019-03-28T18:19:37.385Z,47.10
2019-03-28T18:22:05.044Z,47.10
2019-03-28T18:24:32.564Z,47.10
2019-03-28T18:27:00.153Z,47.10
2019-03-28T18:29:27.732Z,47.10
2019-03-28T18:31:55.485Z,47.10
2019-03-28T18:34:23.062Z,47.20
2019-03-28T18:36:50.581Z,47.10
2019-03-28T18:39:18.098Z,47.20
2019-03-28T18:41:45.705Z,47.50
2019-03-28T18:44:13.300Z,47.60
2019-03-28T18:46:40.889Z,47.70
2019-03-28T18:49:08.426Z,47.70
2019-03-28T18:51:35.990Z,47.60
2019-03-28T18:54:03.538Z,47.60
2019-03-28T18:56:31.032Z,47.60
2019-03-28T18:58:58.740Z,47.60
2019-03-28T19:01:26.307Z,47.50
2019-03-28T19:03:53.917Z,47.50
2019-03-28T19:06:21.548Z,47.50
2019-03-28T19:08:49.087Z,47.50
2019-03-28T19:11:16.679Z,47.50
2019-03-28T19:13:44.182Z,47.40
2019-03-28T19:16:11.725Z,47.50
2019-03-28T19:18:39.321Z,47.40
2019-03-28T19:21:06.821Z,47.40
2019-03-28T19:23:34.656Z,47.30
2019-03-28T19:26:02.210Z,47.50
2019-03-28T19:28:29.722Z,47.60
2019-03-28T19:30:57.323Z,47.80
2019-03-28T19:33:24.842Z,47.80
2019-03-28T19:35:52.422Z,47.60
2019-03-28T19:38:19.954Z,47.70
2019-03-28T19:40:47.460Z,47.70
2019-03-28T19:43:20.873Z,47.70
2019-03-28T19:46:05.321Z,47.70
2019-03-28T19:48:33.036Z,47.60
2019-03-28T19:51:00.550Z,47.60
2019-03-28T19:53:28.161Z,47.70
2019-03-28T19:55:55.745Z,47.50
2019-03-28T19:58:23.296Z,47.60
2019-03-28T20:00:50.816Z,47.60
2019-03-28T20:03:18.389Z,47.60
2019-03-28T20:05:47.872Z,47.60
2019-03-28T20:08:16.428Z,47.70
2019-03-28T20:10:45.005Z,47.60
2019-03-28T20:13:13.055Z,47.80
2019-03-28T20:15:40.569Z,47.80
2019-03-28T20:18:08.073Z,47.80
2019-03-28T20:20:35.581Z,47.80
2019-03-28T20:23:03.087Z,47.70
2019-03-28T20:25:30.621Z,47.60
2019-03-28T20:27:59.294Z,47.60
2019-03-28T20:30:27.750Z,47.50
2019-03-28T20:32:55.499Z,47.40
2019-03-28T20:35:23.005Z,47.10
2019-03-28T20:37:50.505Z,47.10
2019-03-28T20:40:18.012Z,47.70
2019-03-28T20:42:45.525Z,47.10
2019-03-28T20:45:13.101Z,47.10
2019-03-28T20:47:40.604Z,47.20
2019-03-28T20:50:08.253Z,47.10
2019-03-28T20:52:56.662Z,47.10
2019-03-28T20:55:24.280Z,47.10
2019-03-28T20:57:53.128Z,47.20
2019-03-28T21:00:34.276Z,47.10
2019-03-28T21:03:03.184Z,47.10
2019-03-28T21:05:30.905Z,47.10
2019-03-28T21:07:58.424Z,47.10
2019-03-28T21:10:25.952Z,47.10
2019-03-28T21:12:53.848Z,47.00
2019-03-28T21:15:21.365Z,47.10
2019-03-28T21:17:48.894Z,47.10
2019-03-28T21:20:16.425Z,47.10
2019-03-28T21:22:43.977Z,47.00
2019-03-28T21:25:11.529Z,47.00
2019-03-28T21:27:39.000Z,47.10
2019-03-28T21:30:06.544Z,47.10
2019-03-28T21:32:34.044Z,47.00
2019-03-28T21:35:01.506Z,47.00
2019-03-28T21:37:28.980Z,47.00
2019-03-28T21:39:56.445Z,47.10
2019-03-28T21:42:23.919Z,47.10
2019-03-28T21:44:51.398Z,47.70
2019-03-28T21:47:18.870Z,47.10
2019-03-28T21:49:46.358Z,47.20
2019-03-28T21:52:14.312Z,47.40
2019-03-28T21:54:42.061Z,47.50
2019-03-28T21:57:09.545Z,47.20
2019-03-28T21:59:37.018Z,47.10
2019-03-28T22:02:04.493Z,47.70
2019-03-28T22:04:31.974Z,47.10
2019-03-28T22:06:59.572Z,47.10
2019-03-28T22:09:27.083Z,47.10
2019-03-28T22:11:54.564Z,47.10
2019-03-28T22:14:22.046Z,47.10
2019-03-28T22:16:49.994Z,47.10
2019-03-28T22:19:17.651Z,47.10
2019-03-28T22:21:45.151Z,47.70
2019-03-28T22:24:12.852Z,47.00
2019-03-28T22:26:40.357Z,47.10
2019-03-28T22:29:07.865Z,47.00
2019-03-28T22:31:35.341Z,47.10
2019-03-28T22:34:02.808Z,47.10
2019-03-28T22:36:30.301Z,47.10
2019-03-28T22:38:57.786Z,47.10
2019-03-28T22:41:25.267Z,47.70
2019-03-28T22:43:52.737Z,47.10
2019-03-28T22:46:20.221Z,47.00
2019-03-28T22:48:47.702Z,47.00
2019-03-28T22:51:15.812Z,46.80
2019-03-28T22:53:43.526Z,46.70
2019-03-28T22:56:10.994Z,46.80
2019-03-28T22:58:38.474Z,46.70
2019-03-28T23:01:05.939Z,46.80
2019-03-28T23:03:33.396Z,46.60
2019-03-28T23:06:00.869Z,46.50
2019-03-28T23:08:28.351Z,46.50
2019-03-28T23:10:55.830Z,46.50
2019-03-28T23:13:23.363Z,46.60
2019-03-28T23:15:50.829Z,46.80
2019-03-28T23:18:18.299Z,46.80
2019-03-28T23:20:45.786Z,46.80
2019-03-28T23:23:13.257Z,46.80
2019-03-28T23:25:40.741Z,46.80
2019-03-28T23:28:08.214Z,46.80
2019-03-28T23:30:35.687Z,46.70
2019-03-28T23:33:03.161Z,46.60
2019-03-28T23:35:30.634Z,46.70
2019-03-28T23:37:58.110Z,46.50
2019-03-28T23:40:26.403Z,46.60
2019-03-28T23:42:54.134Z,46.50
2019-03-28T23:45:21.598Z,46.50
2019-03-28T23:47:49.064Z,46.60
2019-03-28T23:50:16.532Z,46.40
2019-03-28T23:52:44.010Z,46.40
2019-03-28T23:55:11.472Z,46.30
2019-03-28T23:57:39.025Z,46.40
